NCAR-RAP Real-Time Weather Data

Output produced by METARs form (10 April 2020  06:43 UTC)
found at http://weather.rap.ucar.edu/surface/
 
KSTL 100551Z 34012G19KT 10SM CLR 04/M10 A3013 RMK AO2 PK WND 34029/0508 SLP204 T00441100 10133 20044 401610044 51029 $
KSTL 100451Z 35019G28KT 10SM CLR 05/M10 A3010 RMK AO2 PK WND 35030/0405 SLP195 T00501100 $
KSTL 100351Z 34019G29KT 10SM CLR 06/M10 A3008 RMK AO2 PK WND 34032/0303 SLP186 T00611100 $
KSTL 100251Z 35016G26KT 10SM CLR 07/M08 A3004 RMK AO2 PK WND 34030/0220 SLP174 T00671078 51044 $
KSTL 100151Z 33017G26KT 10SM FEW250 08/M06 A3001 RMK AO2 PK WND 34030/0128 SLP163 T00831056 $
KSTL 100051Z 36015G29KT 10SM FEW090 FEW250 10/M04 A2995 RMK AO2 PK WND 33036/0007 PRESRR SLP145 T01001044 $
KSTL 092351Z 31021G32KT 10SM SCT095 SCT250 13/M07 A2991 RMK AO2 PK WND 31035/2255 SLP128 T01331072 10161 20133 53005 $
KSTL 092251Z 29019G34KT 10SM SCT095 SCT250 14/M07 A2989 RMK AO2 PK WND 31037/2241 SLP123 T01441067 $
KSTL 092151Z 30020G33KT 10SM FEW060 FEW130 SCT250 15/M08 A2988 RMK AO2 PK WND 31036/2109 SLP120 T01501078 $
KSTL 092051Z 28023G33KT 10SM FEW060 FEW150 FEW250 16/M08 A2989 RMK AO2 PK WND 28035/2019 SLP121 T01561078 $
KSTL 091951Z 30022G33KT 10SM FEW060 SCT150 BKN250 16/M07 A2990 RMK AO2 PK WND 27037/1937 SLP123 T01561072 $
KSTL 091851Z 31022G32KT 10SM FEW060 BKN150 BKN250 16/M07 A2991 RMK AO2 PK WND 28034/1837 SLP125 T01561067 $
KSTL 091751Z 30016G29KT 10SM FEW060 BKN150 BKN250 15/M05 A2993 RMK AO2 PK WND 31029/1742 SLP133 T01501050 10156 20078 58021
KSTL 091651Z 29014G23KT 10SM FEW060 SCT250 14/M03 A2996 RMK AO2 SLP143 T01441028
KSTL 091551Z 28009KT 10SM BKN250 13/M02 A2999 RMK AO2 SLP152 T01281022
KSTL 091451Z 31011KT 10SM FEW250 12/M02 A3000 RMK AO2 SLP155 T01171022 50010
KSTL 091351Z 32008KT 10SM SCT250 11/M01 A3000 RMK AO2 SLP158 T01061011
KSTL 091251Z 30005KT 10SM FEW250 09/01 A2998 RMK AO2 SLP149 T00940006
KSTL 091151Z 29004KT 10SM FEW250 08/M01 A2997 RMK AO2 SLP140 T00781011 10122 20072 53002
KSTL 091051Z 33005KT 10SM CLR 08/M01 A2995 RMK AO2 SLP133 T00781006 $
KSTL 090951Z 33008KT 10SM CLR 09/M02 A2995 RMK AO2 SLP134 T00941022 $
KSTL 090851Z 32007KT 10SM CLR 11/02 A2996 RMK AO2 SLP136 T01060017 53014 $
KSTL 090751Z 34009KT 10SM CLR 11/01 A2995 RMK AO2 SLP131 T01110011 $